THY7WF EBBR-LTFM
Flight info
| Callsign | THY7WF |
|---|---|
| Flight time | N/A |
| Altitude | 35000 |
| Route | SOPOK Y863 OGLOR DCT EMGOD DCT BOMBI DCT BARSU DCT DEXIT DCT PESAT DCT INVED DCT TIMUR L606 GASRU T390 RILEX |
| Aircraft | A321/M-SDE3FGHIRWY/LB1 |
Departure
| Time | 2026-05-06 11:01 |
|---|---|
| Airport | Brussels Airport (EBBR) |
Arrival
| Time | N/A |
|---|---|
| Airport | İstanbul Airport (LTFM) |
| Time | Latitude | Longitude | Altitude | Speed | Heading |
|---|---|---|---|---|---|
| 2026-05-06 10:29 | 50.89962 | 4.48788 | 126 ft | 0 kts | 335° |
| 2026-05-06 10:51 | 50.89956 | 4.48792 | 130 ft | 4 kts | 335° |
| 2026-05-06 10:52 | 50.89931 | 4.48809 | 132 ft | 4 kts | 338° |
| 2026-05-06 10:52 | 50.89906 | 4.48824 | 134 ft | 4 kts | 343° |
| 2026-05-06 10:52 | 50.89880 | 4.48832 | 135 ft | 4 kts | 5° |
| 2026-05-06 10:52 | 50.89861 | 4.48821 | 136 ft | 2 kts | 65° |
| 2026-05-06 10:53 | 50.89861 | 4.48820 | 136 ft | 0 kts | 65° |
| 2026-05-06 10:54 | 50.89871 | 4.48855 | 136 ft | 6 kts | 66° |
| 2026-05-06 10:55 | 50.89894 | 4.48937 | 136 ft | 11 kts | 65° |
| 2026-05-06 10:55 | 50.89929 | 4.49057 | 136 ft | 13 kts | 65° |
| 2026-05-06 10:55 | 50.89968 | 4.49196 | 134 ft | 16 kts | 69° |
| 2026-05-06 10:55 | 50.90033 | 4.49304 | 127 ft | 15 kts | 13° |
| 2026-05-06 10:56 | 50.90135 | 4.49343 | 130 ft | 14 kts | 15° |
| 2026-05-06 10:56 | 50.90226 | 4.49382 | 128 ft | 13 kts | 15° |
| 2026-05-06 10:56 | 50.90314 | 4.49418 | 122 ft | 13 kts | 14° |
| 2026-05-06 10:56 | 50.90395 | 4.49451 | 124 ft | 11 kts | 14° |
| 2026-05-06 10:57 | 50.90464 | 4.49479 | 122 ft | 9 kts | 14° |
| 2026-05-06 10:57 | 50.90522 | 4.49502 | 120 ft | 8 kts | 14° |
| 2026-05-06 10:57 | 50.90590 | 4.49530 | 124 ft | 14 kts | 14° |
| 2026-05-06 10:57 | 50.90685 | 4.49569 | 122 ft | 14 kts | 14° |
| 2026-05-06 10:58 | 50.90783 | 4.49608 | 124 ft | 15 kts | 14° |
| 2026-05-06 10:58 | 50.90877 | 4.49647 | 123 ft | 10 kts | 19° |
| 2026-05-06 10:58 | 50.90916 | 4.49736 | 121 ft | 11 kts | 69° |
| 2026-05-06 10:58 | 50.90926 | 4.49777 | 123 ft | 0 kts | 67° |
| 2026-05-06 10:59 | 50.90933 | 4.49794 | 119 ft | 4 kts | 58° |
| 2026-05-06 10:59 | 50.90972 | 4.49851 | 120 ft | 12 kts | 38° |
| 2026-05-06 10:59 | 50.91059 | 4.49926 | 116 ft | 14 kts | 22° |
| 2026-05-06 11:00 | 50.91125 | 4.49923 | 115 ft | 10 kts | 313° |
| 2026-05-06 11:00 | 50.91120 | 4.49818 | 117 ft | 11 kts | 244° |
| 2026-05-06 11:00 | 50.91114 | 4.49800 | 118 ft | 0 kts | 244° |
| 2026-05-06 11:00 | 50.91058 | 4.49605 | 117 ft | 53 kts | 246° |
| 2026-05-06 11:01 | 50.90806 | 4.48733 | 118 ft | 118 kts | 245° |
| 2026-05-06 11:01 | 50.90387 | 4.47285 | 127 ft | 169 kts | 248° |
| 2026-05-06 11:01 | 50.89905 | 4.45504 | 587 ft | 177 kts | 257° |
| 2026-05-06 11:01 | 50.89802 | 4.43600 | 1304 ft | 173 kts | 282° |
| 2026-05-06 11:02 | 50.90150 | 4.41806 | 1962 ft | 170 kts | 296° |
| 2026-05-06 11:02 | 50.90588 | 4.40050 | 2461 ft | 172 kts | 297° |
| 2026-05-06 11:02 | 50.91038 | 4.38286 | 2973 ft | 173 kts | 297° |
| 2026-05-06 11:02 | 50.91488 | 4.36487 | 3390 ft | 182 kts | 292° |
| 2026-05-06 11:03 | 50.91521 | 4.34363 | 3596 ft | 209 kts | 257° |
| 2026-05-06 11:03 | 50.90706 | 4.32329 | 3831 ft | 231 kts | 225° |
| 2026-05-06 11:03 | 50.89474 | 4.30532 | 4009 ft | 253 kts | 223° |
| 2026-05-06 11:03 | 50.88103 | 4.28576 | 4284 ft | 275 kts | 222° |
| 2026-05-06 11:04 | 50.86652 | 4.26527 | 5034 ft | 281 kts | 222° |
| 2026-05-06 11:04 | 50.85188 | 4.24458 | 5824 ft | 283 kts | 222° |
| 2026-05-06 11:04 | 50.83573 | 4.22654 | 6519 ft | 287 kts | 205° |
| 2026-05-06 11:04 | 50.81661 | 4.21752 | 7172 ft | 289 kts | 185° |
| 2026-05-06 11:05 | 50.79660 | 4.21888 | 7853 ft | 290 kts | 166° |
| 2026-05-06 11:05 | 50.77774 | 4.23030 | 8459 ft | 292 kts | 148° |
| 2026-05-06 11:05 | 50.76190 | 4.25023 | 9126 ft | 292 kts | 129° |
| 2026-05-06 11:05 | 50.75105 | 4.27726 | 9822 ft | 293 kts | 116° |
| 2026-05-06 11:06 | 50.74149 | 4.30622 | 10230 ft | 306 kts | 115° |
| 2026-05-06 11:06 | 50.73149 | 4.33714 | 10365 ft | 327 kts | 116° |